KSAV/SAV METAR and TAF weather

Enter ICAO airport designator
Station Type Date Time Source
KSAV METAR 2018/12/18 18:53 UTC NOAA

KSAV 181853Z 09007KT 10SM SCT250 18/04 A3008 RMK AO2 SLP184 T01780044


Station Type Date Time Source
KSAV Decoded METAR 2018/12/18 18:53 UTC NOAA

SAVANNAH INTERNATIONAL AIRPORT , GA, United States (KSAV) 32-07N 81-12W 14M
Dec 18, 2018 - 01:53 PM EST / 2018.12.18 1853 UTC
Wind: from the E (090 degrees) at 8 MPH (7 KT):0
Visibility: 10 mile(s):0
Sky conditions: partly cloudy
Temperature: 64.0 F (17.8 C)
Dew Point: 39.9 F (4.4 C)
Relative Humidity: 41%
Pressure (altimeter): 30.08 in. Hg (1018 hPa)
ob: KSAV 181853Z 09007KT 10SM SCT250 18/04 A3008 RMK AO2 SLP184 T01780044
cycle: 19

Station Type Date Time Source
KSAV TAF 2018/12/18 18:31 UTC NOAA

TAF KSAV 181727Z 1818/1918 08006KT P6SM FEW250
FM190000 00000KT P6SM FEW200
FM191500 08004KT P6SM SCT250


Example: see airport list